West Baffin - northern half: Past 24 Hour Conditions

 

Gjoa Haven Airport

01:00 AM MDT 16 September 2014
This table is a summary of hourly weather conditions for the past 24 hours.
Date / Time
(MDT)
Wind(knots) Conditions Visibility(km) Pressure(kPa) Air tempC) Relative humidity(%) Dew pointC) Wind Chill
16 September 2014
1:00 NNW 16 Light Snow 16 101.4 -3 92 -4 -11
0:00 NNW 13 Light Snow 16 101.4 -3 93 -4 -10
15 September 2014
23:00 NNW 15 Light Snow 16 101.3 -3 93 -4 -11
22:00 NNW 15 Light Snow 16 101.3 -4 93 -5 -11
21:00 NNW 13 gust 18 Cloudy 16 101.3 -4 95 -4 -10
20:00 NNW 18 Light Snow 8 101.3 -4 93 -5 -12
19:00 NW 22 gust 28 Light Snow 4 101.3 -4 93 -5 -12
18:00 NW 20 gust 25 Partly Cloudy 16 101.3 -4 90 -5 -12
17:00 NW 20 Partly Cloudy 16 101.3 -3 86 -5 -11
16:00 NW 18 gust 24 Mostly Cloudy 16 101.3 -3 80 -6 -11
15:00 NNW 17 Mostly Cloudy 16 101.3 -3 78 -6 -10
14:00 NW 21 gust 26 Mostly Cloudy 16 101.3 -3 76 -7 -11
13:00 NW 19 gust 25 Mostly Cloudy 16 101.2 -3 80 -6 -11
12:00 NW 19 gust 26 Mostly Cloudy 16 101.2 -3 81 -6 -11
11:00 NNW 21 Cloudy 16 101.2 -3 83 -5 -11
10:00 NNW 21 gust 27 Cloudy 16 101.2 -3 83 -6 -12
9:00 NNW 21 gust 27 Cloudy 16 101.2 -4 85 -6 -12
8:00 N 22 gust 30 Cloudy 16 101.2 -4 87 -5 -12
7:00 N 19 gust 29 Cloudy 16 101.2 -4 90 -5 -12
6:00 N 23 gust 29 Cloudy 16 101.1 -3 91 -5 -12
5:00 N 23 Cloudy 16 101.1 -3 90 -5 -12
4:00 N 23 Cloudy 16 101.1 -3 93 -4 -12
3:00 N 22 gust 29 Cloudy 16 101.0 -3 91 -4 -12
2:00 N 19 gust 25 Cloudy 16 101.0 -3 91 -4 -10
1:00 N 20 Cloudy 16 100.9 -2 90 -4 -10
 
Map of Arctic - Eastern Arctic marine weather areas Baker Lake Airport Chesterfield Inlet Airport Coral Harbour Airport Gjoa Haven Airport Kugaaruk Airport Rankin Inlet Airport Shepherd Bay Airport Whale Cove Airport Arctic Bay Brevoort Island Qikiqtarjuaq Airport Cape Dorset Airport Cape Dyer Cape Hooper Clyde Airport Grise Fiord Airport Hall Beach Airport Igloolik Airport Iqaluit Airport Longstaff Bluff Pangnirtung Airport Pond Inlet Airport Repulse Bay Airport Resolute Airport Resolution Island Rowley Island Airport Taloyoak Airport Wager Bay Akulivik Airport Ivujivik Airport Puvirnituq Airport Kangiqsujuaq Airport Kangirsuk Airport Quaqtaq Airport Tasiujaq Airport Cape Kakkiviak Cape Kiglapait Nain Airport Saglek Cape Mercy Kimmirut Airport Aupaluk Airport Salluit Airport Kangiqsualujjuaq Airport Fort Ross
Legend: buoyBuoy land stationLand Station